Time;durP1;ratioP1;P1;durP2;ratioP2;P2;SDS_P1;SDS_P2;PMS_P1;PMS_P2;Temp;Humidity;BMP_temperature;BMP_pressure;BME280_temperature;BME280_humidity;BME280_pressure;Samples;Min_cycle;Max_cycle;Signal;HPM_P1;HPM_P2
2022/04/17 00:02:19;;;;;;;3.50;2.47;;;3.90;99.90;;;;;;5095537;28;20475;-75
2022/04/17 00:04:45;;;;;;;6.72;2.63;;;3.90;99.90;;;;;;5093716;28;20040;-75
2022/04/17 00:07:11;;;;;;;6.10;2.95;;;3.90;99.90;;;;;;5094140;28;20038;-75
2022/04/17 00:09:36;;;;;;;4.72;2.70;;;3.90;99.90;;;;;;5093898;28;20044;-75
2022/04/17 00:12:02;;;;;;;4.53;3.35;;;3.90;99.90;;;;;;5094470;28;20080;-74
2022/04/17 00:14:28;;;;;;;3.03;2.58;;;3.90;99.90;;;;;;5093957;28;20048;-75
2022/04/17 00:16:56;;;;;;;5.57;2.35;;;3.90;99.90;;;;;;5094038;28;20048;-75
2022/04/17 00:19:23;;;;;;;4.90;3.10;;;3.90;99.90;;;;;;5093143;28;20093;-75
2022/04/17 00:21:49;;;;;;;5.75;3.25;;;3.90;99.90;;;;;;5095128;28;20050;-75
2022/04/17 00:24:15;;;;;;;6.78;3.15;;;3.90;99.90;;;;;;5093767;28;20164;-75
2022/04/17 00:26:41;;;;;;;4.03;2.72;;;3.90;99.90;;;;;;5092981;28;20040;-75
2022/04/17 00:29:07;;;;;;;6.35;2.42;;;3.80;99.90;;;;;;5095163;28;20051;-75
2022/04/17 00:31:33;;;;;;;4.70;2.72;;;3.90;99.90;;;;;;5094973;28;20040;-75
2022/04/17 00:33:59;;;;;;;4.00;3.13;;;3.90;99.90;;;;;;5092940;28;20380;-75
2022/04/17 00:36:25;;;;;;;5.32;3.70;;;3.90;99.90;;;;;;5094721;28;20104;-75
2022/04/17 00:38:50;;;;;;;6.38;3.47;;;3.90;99.90;;;;;;5094361;28;20044;-75
2022/04/17 00:41:16;;;;;;;7.03;3.55;;;3.80;99.90;;;;;;5094937;28;20044;-75
2022/04/17 00:43:47;;;;;;;5.30;2.85;;;3.80;99.90;;;;;;5093514;28;20063;-75
2022/04/17 00:46:13;;;;;;;7.78;3.80;;;3.80;99.90;;;;;;5092610;28;20551;-75
2022/04/17 00:48:39;;;;;;;7.78;3.40;;;3.80;99.90;;;;;;5094661;28;20509;-75
2022/04/17 00:51:06;;;;;;;4.32;3.20;;;3.70;99.90;;;;;;5094397;28;20051;-75
2022/04/17 00:53:34;;;;;;;5.43;3.10;;;3.70;99.90;;;;;;5109313;28;20499;-75
2022/04/17 00:56:00;;;;;;;3.28;2.80;;;3.70;99.90;;;;;;5094533;28;20147;-75
2022/04/17 00:58:29;;;;;;;6.80;3.08;;;3.70;99.90;;;;;;5094495;28;20051;-75
2022/04/17 01:00:55;;;;;;;6.03;3.50;;;3.70;99.90;;;;;;5093632;28;20054;-75
2022/04/17 01:03:21;;;;;;;4.80;3.20;;;3.60;99.90;;;;;;5092912;28;20040;-75
2022/04/17 01:05:47;;;;;;;5.30;3.33;;;3.60;99.90;;;;;;5093168;28;20082;-75
2022/04/17 01:08:14;;;;;;;4.35;3.30;;;3.60;99.90;;;;;;5093656;28;20097;-75
2022/04/17 01:10:40;;;;;;;3.72;3.13;;;3.60;99.90;;;;;;5092946;28;20525;-75
2022/04/17 01:13:08;;;;;;;8.90;4.07;;;3.50;99.90;;;;;;5094241;28;20052;-75
2022/04/17 01:15:36;;;;;;;5.85;3.42;;;3.50;99.90;;;;;;5091925;28;20122;-75
2022/04/17 01:18:02;;;;;;;5.65;3.20;;;3.50;99.90;;;;;;5092948;28;20039;-75
2022/04/17 01:20:28;;;;;;;6.93;4.22;;;3.50;99.90;;;;;;5094241;28;20124;-75
2022/04/17 01:28:25;;;;;;;8.75;3.10;;;3.50;99.90;;;;;;5093159;28;20126;-75
2022/04/17 01:30:52;;;;;;;5.53;3.55;;;3.40;99.90;;;;;;5092190;28;20059;-75
2022/04/17 01:33:18;;;;;;;6.82;4.10;;;3.40;99.90;;;;;;5092526;28;20047;-75
2022/04/17 01:35:44;;;;;;;6.32;4.03;;;3.40;99.90;;;;;;5092922;28;20051;-75
2022/04/17 01:38:10;;;;;;;8.07;4.13;;;3.40;99.90;;;;;;5092821;28;20089;-75
2022/04/17 01:40:35;;;;;;;5.93;3.80;;;3.40;99.90;;;;;;5075765;28;20043;-75
2022/04/17 01:43:01;;;;;;;5.63;4.00;;;3.40;99.90;;;;;;5092913;28;20044;-75
2022/04/17 01:45:27;;;;;;;5.70;3.25;;;3.40;99.90;;;;;;5093786;28;20044;-75
2022/04/17 01:47:54;;;;;;;5.68;3.58;;;3.40;99.90;;;;;;5093830;28;20483;-75
2022/04/17 01:50:20;;;;;;;9.55;4.25;;;3.30;99.90;;;;;;5091447;28;20060;-75
2022/04/17 01:52:46;;;;;;;6.50;3.90;;;3.30;99.90;;;;;;5093738;28;20483;-75
2022/04/17 01:55:11;;;;;;;8.07;5.05;;;3.30;99.90;;;;;;5092463;28;20079;-75
2022/04/17 01:57:37;;;;;;;5.63;4.10;;;3.30;99.90;;;;;;5092556;28;20481;-75
2022/04/17 02:00:03;;;;;;;6.40;4.03;;;3.20;99.90;;;;;;5092228;28;20044;-75
2022/04/17 02:02:29;;;;;;;8.93;3.97;;;3.20;99.90;;;;;;5109300;28;20488;-75
2022/04/17 02:04:55;;;;;;;5.00;3.90;;;3.20;99.90;;;;;;5091408;28;20059;-75
2022/04/17 02:07:21;;;;;;;5.15;4.20;;;3.20;99.90;;;;;;5092338;28;20040;-75
2022/04/17 02:09:46;;;;;;;10.65;4.50;;;3.20;99.90;;;;;;5092341;28;20100;-75
2022/04/17 02:12:12;;;;;;;7.40;4.47;;;3.20;99.90;;;;;;5091258;28;20051;-75
2022/04/17 02:14:38;;;;;;;6.85;4.88;;;3.10;99.90;;;;;;5093447;28;20044;-75
2022/04/17 02:17:04;;;;;;;11.88;4.30;;;3.20;99.90;;;;;;5093355;28;20502;-75
2022/04/17 02:19:29;;;;;;;6.97;4.10;;;3.20;99.90;;;;;;5091383;28;20048;-75
2022/04/17 02:21:55;;;;;;;6.07;4.45;;;3.10;99.90;;;;;;5093499;28;20126;-75
2022/04/17 02:24:21;;;;;;;7.25;4.63;;;3.10;99.90;;;;;;5092682;28;20043;-75
2022/04/17 02:26:47;;;;;;;6.72;4.93;;;3.20;99.90;;;;;;5092396;28;20043;-75
2022/04/17 02:29:13;;;;;;;6.07;4.13;;;3.20;99.90;;;;;;5109264;28;20055;-75
2022/04/17 02:31:38;;;;;;;7.18;4.43;;;3.10;99.90;;;;;;5091357;28;20052;-75
2022/04/17 02:34:05;;;;;;;7.43;4.50;;;3.10;99.90;;;;;;5092062;28;20498;-75
2022/04/17 02:36:31;;;;;;;8.07;4.88;;;3.00;99.90;;;;;;5093378;28;20040;-75
2022/04/17 02:38:58;;;;;;;8.05;4.72;;;3.00;99.90;;;;;;5091173;28;20498;-75
2022/04/17 02:41:24;;;;;;;11.43;4.63;;;3.00;99.90;;;;;;5092093;28;20048;-75
2022/04/17 02:43:50;;;;;;;8.98;4.47;;;3.00;99.90;;;;;;5111383;28;20097;-75
2022/04/17 02:47:42;;;;;;;7.97;4.70;;;3.00;99.90;;;;;;5096284;28;20055;-75
2022/04/17 02:49:01;;;;;;;6.72;4.53;;;3.00;99.90;;;;;;5113057;28;20052;-75
2022/04/17 02:51:27;;;;;;;6.45;4.53;;;3.00;99.90;;;;;;5095564;28;20376;-75
2022/04/17 02:53:53;;;;;;;10.93;5.13;;;2.90;99.90;;;;;;5094854;28;20482;-75
2022/04/17 02:56:19;;;;;;;6.97;4.25;;;2.90;99.90;;;;;;5095400;28;20145;-75
2022/04/17 02:58:45;;;;;;;7.10;5.20;;;2.90;99.90;;;;;;5112717;28;20051;-75
2022/04/17 03:06:39;;;;;;;5.53;3.80;;;2.80;99.90;;;;;;5095696;28;20048;-75
2022/04/17 03:09:04;;;;;;;8.68;4.80;;;2.80;99.90;;;;;;5095455;28;20054;-75
2022/04/17 03:11:30;;;;;;;8.90;4.80;;;2.80;99.90;;;;;;5078350;28;20044;-75
2022/04/17 03:13:56;;;;;;;8.90;5.00;;;2.80;99.90;;;;;;5094340;28;20104;-75
2022/04/17 03:16:21;;;;;;;8.05;5.10;;;2.80;99.90;;;;;;5096436;28;20131;-75
2022/04/17 03:18:47;;;;;;;6.82;5.05;;;2.80;99.90;;;;;;5096293;28;20121;-74
2022/04/17 03:21:13;;;;;;;8.15;5.10;;;2.80;99.90;;;;;;5095584;28;20090;-74
2022/04/17 03:23:39;;;;;;;8.75;5.50;;;2.80;99.90;;;;;;5095245;28;20051;-75
2022/04/17 03:26:05;;;;;;;7.22;5.03;;;2.80;99.90;;;;;;5096300;28;20052;-74
2022/04/17 03:28:30;;;;;;;12.40;5.60;;;2.80;99.90;;;;;;5093996;28;20047;-74
2022/04/17 03:30:56;;;;;;;8.15;5.18;;;2.70;99.90;;;;;;5094954;28;20048;-74
2022/04/17 03:33:22;;;;;;;9.30;5.45;;;2.80;99.90;;;;;;5094762;28;20047;-74
2022/04/17 03:35:48;;;;;;;8.88;5.20;;;2.70;99.90;;;;;;5077340;28;20047;-74
2022/04/17 03:38:13;;;;;;;7.97;5.35;;;2.70;99.90;;;;;;5096137;28;20043;-74
2022/04/17 03:40:40;;;;;;;7.85;5.40;;;2.70;99.90;;;;;;5094648;28;20134;-75
2022/04/17 03:43:06;;;;;;;7.25;5.35;;;2.70;99.90;;;;;;5094885;28;20054;-75
2022/04/17 03:45:32;;;;;;;8.98;5.57;;;2.70;99.90;;;;;;5096020;28;20048;-75
2022/04/17 03:47:59;;;;;;;7.32;5.05;;;2.70;99.90;;;;;;5094751;28;20036;-75
2022/04/17 03:50:25;;;;;;;6.68;4.85;;;2.70;99.90;;;;;;5094877;28;20160;-75
2022/04/17 03:52:50;;;;;;;9.93;5.82;;;2.70;99.90;;;;;;5094653;28;20157;-75
2022/04/17 03:55:16;;;;;;;10.65;5.40;;;2.70;99.90;;;;;;5094028;28;20080;-75
2022/04/17 03:57:42;;;;;;;9.18;5.50;;;2.60;99.90;;;;;;5094871;28;20391;-75
2022/04/17 04:00:11;;;;;;;8.90;5.97;;;2.60;99.90;;;;;;5094353;28;20040;-75
2022/04/17 04:02:37;;;;;;;11.52;5.88;;;2.60;99.90;;;;;;5094596;28;20043;-75
2022/04/17 04:05:04;;;;;;;7.88;5.55;;;2.60;99.90;;;;;;5093618;28;20131;-75
2022/04/17 04:07:29;;;;;;;10.32;5.85;;;2.60;99.90;;;;;;5094090;28;20144;-75
2022/04/17 04:09:55;;;;;;;9.40;6.20;;;2.60;99.90;;;;;;5094517;28;20085;-75
2022/04/17 04:12:21;;;;;;;9.05;4.95;;;2.60;99.90;;;;;;5095231;28;20078;-75
2022/04/17 04:14:47;;;;;;;8.27;5.63;;;2.60;99.90;;;;;;5095358;28;20047;-75
2022/04/17 04:17:13;;;;;;;8.07;6.00;;;2.50;99.90;;;;;;5094342;28;20131;-75
2022/04/17 04:19:38;;;;;;;9.88;5.75;;;2.50;99.90;;;;;;5095081;28;20486;-75
2022/04/17 04:22:04;;;;;;;11.25;6.32;;;2.50;99.90;;;;;;5095100;28;20092;-75
2022/04/17 04:24:31;;;;;;;7.90;5.57;;;2.40;99.90;;;;;;5094370;28;20039;-75
2022/04/17 04:29:52;;;;;;;12.05;6.82;;;2.40;99.90;;;;;;5041149;28;20458;-75
2022/04/17 04:32:20;;;;;;;10.15;5.68;;;2.40;99.90;;;;;;5094203;28;20036;-75
2022/04/17 04:34:46;;;;;;;15.20;6.15;;;2.50;99.90;;;;;;5094793;28;20131;-75
2022/04/17 04:37:11;;;;;;;9.52;6.35;;;2.50;99.90;;;;;;5094857;28;20076;-75
2022/04/17 04:39:38;;;;;;;8.13;6.15;;;2.50;99.90;;;;;;5093911;28;20051;-75
2022/04/17 04:42:04;;;;;;;10.38;5.60;;;2.50;99.90;;;;;;5093782;28;20093;-75
2022/04/17 04:44:30;;;;;;;9.32;6.28;;;2.50;99.90;;;;;;5076387;28;20048;-75
2022/04/17 04:46:55;;;;;;;10.40;6.95;;;2.50;99.90;;;;;;5093743;28;20044;-75
2022/04/17 04:49:31;;;;;;;9.43;5.78;;;2.50;99.90;;;;;;5093200;28;20554;-75
2022/04/17 04:52:01;;;;;;;11.77;6.22;;;2.50;99.90;;;;;;5093451;28;20055;-75
2022/04/17 04:54:28;;;;;;;10.52;6.80;;;2.50;99.90;;;;;;5094330;28;20055;-75
2022/04/17 04:56:54;;;;;;;9.15;6.18;;;2.40;99.90;;;;;;5093172;28;20055;-75
2022/04/17 04:59:21;;;;;;;9.77;6.18;;;2.40;99.90;;;;;;5092220;28;20044;-75
2022/04/17 05:01:48;;;;;;;9.13;6.25;;;2.40;99.90;;;;;;5093178;28;20043;-75
2022/04/17 05:04:15;;;;;;;9.38;6.20;;;2.40;99.90;;;;;;5094302;28;20032;-75
2022/04/17 05:06:41;;;;;;;7.18;5.82;;;2.40;99.90;;;;;;5092890;28;20044;-75
2022/04/17 05:09:07;;;;;;;10.25;6.55;;;2.50;99.90;;;;;;5094263;28;20036;-75
2022/04/17 05:11:33;;;;;;;11.00;6.68;;;2.50;99.90;;;;;;5093057;28;20141;-75
2022/04/17 05:13:59;;;;;;;9.55;6.53;;;2.50;99.90;;;;;;5093398;28;20507;-75
2022/04/17 05:16:25;;;;;;;9.80;5.53;;;2.50;99.90;;;;;;5092820;28;20048;-75
2022/04/17 05:19:17;;;;;;;8.70;6.05;;;2.60;99.90;;;;;;5092903;28;20048;-75
2022/04/17 05:21:36;;;;;;;10.85;6.47;;;2.60;99.90;;;;;;5108847;28;20043;-75
2022/04/17 05:24:02;;;;;;;9.95;6.40;;;2.60;99.90;;;;;;5093889;28;20123;-75
2022/04/17 05:26:28;;;;;;;10.80;6.68;;;2.60;99.90;;;;;;5092747;28;20039;-75
2022/04/17 05:28:56;;;;;;;11.05;7.03;;;2.60;99.90;;;;;;5108825;28;20040;-75
2022/04/17 05:31:22;;;;;;;9.63;6.55;;;2.70;99.90;;;;;;5092680;28;20119;-75
2022/04/17 05:33:48;;;;;;;9.23;6.55;;;2.70;99.90;;;;;;5093746;28;20123;-75
2022/04/17 05:36:13;;;;;;;10.65;6.90;;;2.80;99.90;;;;;;5092776;28;20048;-75
2022/04/17 05:38:39;;;;;;;12.35;6.45;;;3.00;99.90;;;;;;5092494;28;20094;-75
2022/04/17 05:41:08;;;;;;;9.85;6.50;;;3.10;99.90;;;;;;5092366;28;20050;-75
2022/04/17 05:43:36;;;;;;;11.43;6.70;;;3.20;99.90;;;;;;5092970;28;20036;-75
2022/04/17 05:46:02;;;;;;;10.18;6.78;;;3.30;99.90;;;;;;5093720;28;20044;-75
2022/04/17 05:48:28;;;;;;;8.68;6.07;;;3.50;99.90;;;;;;5091626;28;20157;-75
2022/04/17 05:50:54;;;;;;;16.40;7.20;;;3.60;99.90;;;;;;5075373;28;20052;-75
2022/04/17 05:53:19;;;;;;;8.85;6.00;;;3.80;99.90;;;;;;5092182;28;20130;-75
2022/04/17 05:55:45;;;;;;;10.73;6.72;;;3.90;99.90;;;;;;5092654;28;20044;-75
2022/04/17 05:58:11;;;;;;;12.45;6.80;;;4.20;99.90;;;;;;5093788;28;20048;-75
2022/04/17 06:00:37;;;;;;;10.73;7.20;;;4.30;99.90;;;;;;5093624;28;20495;-75
2022/04/17 06:03:05;;;;;;;10.90;6.55;;;4.50;99.90;;;;;;5092788;28;20115;-75
2022/04/17 06:05:30;;;;;;;10.23;6.50;;;4.70;99.90;;;;;;5092376;28;20453;-75
2022/04/17 06:07:56;;;;;;;10.80;6.88;;;4.80;99.90;;;;;;5092160;28;20051;-75
2022/04/17 06:10:22;;;;;;;10.57;6.63;;;5.00;99.90;;;;;;5092680;28;20040;-75
2022/04/17 06:12:48;;;;;;;12.95;5.93;;;5.20;99.90;;;;;;5092133;28;20048;-75
2022/04/17 06:15:13;;;;;;;11.23;6.63;;;5.40;99.90;;;;;;5092118;28;20083;-75
2022/04/17 06:17:42;;;;;;;10.55;6.30;;;5.50;99.90;;;;;;5093775;28;20514;-75
2022/04/17 06:20:13;;;;;;;10.63;6.75;;;5.60;99.90;;;;;;5113590;28;20055;-75
2022/04/17 06:22:39;;;;;;;11.20;6.53;;;5.70;99.90;;;;;;5096425;28;20078;-75
2022/04/17 06:25:10;;;;;;;10.25;6.15;;;5.90;99.90;;;;;;5095596;28;20124;-75
2022/04/17 06:27:40;;;;;;;12.80;7.90;;;6.10;99.90;;;;;;5097355;28;20548;-76
2022/04/17 06:30:12;;;;;;;10.90;6.57;;;6.20;99.90;;;;;;5079560;28;20090;-75
2022/04/17 06:32:39;;;;;;;11.35;6.05;;;6.30;99.90;;;;;;5112203;28;20056;-75
2022/04/17 06:35:07;;;;;;;9.73;6.30;;;6.40;99.90;;;;;;5095749;28;20044;-76
2022/04/17 06:37:45;;;;;;;11.00;6.75;;;6.60;99.90;;;;;;5112199;28;20122;-75
2022/04/17 06:40:13;;;;;;;10.90;6.78;;;6.70;99.90;;;;;;5097318;28;20047;-75
2022/04/17 06:42:39;;;;;;;14.38;6.53;;;6.80;99.90;;;;;;5096956;28;20076;-76
2022/04/17 06:45:05;;;;;;;8.68;7.13;;;6.80;99.90;;;;;;5094985;28;20083;-75
2022/04/17 06:47:31;;;;;;;10.32;6.68;;;7.00;99.90;;;;;;5095875;28;20036;-75
2022/04/17 06:49:57;;;;;;;10.98;6.50;;;7.10;99.90;;;;;;5095422;28;20062;-76
2022/04/17 06:52:23;;;;;;;11.40;6.43;;;7.20;99.90;;;;;;5094684;28;20044;-76
2022/04/17 06:54:48;;;;;;;13.43;8.13;;;7.30;99.90;;;;;;5095553;28;20079;-75
2022/04/17 06:57:14;;;;;;;9.77;6.03;;;7.40;99.90;;;;;;5095568;28;20040;-75
2022/04/17 06:59:40;;;;;;;12.10;6.70;;;7.50;99.90;;;;;;5094582;28;20044;-75
2022/04/17 07:02:06;;;;;;;10.82;6.45;;;7.60;99.90;;;;;;5095263;28;20096;-76
2022/04/17 07:04:32;;;;;;;10.32;7.35;;;7.80;99.90;;;;;;5095344;28;20044;-76
2022/04/17 07:06:58;;;;;;;12.98;6.55;;;7.90;99.90;;;;;;5095651;28;20042;-75
2022/04/17 07:09:24;;;;;;;9.02;6.25;;;8.00;99.90;;;;;;5095525;28;20094;-75
2022/04/17 07:11:49;;;;;;;12.02;6.47;;;8.10;99.90;;;;;;5096562;28;20395;-75
2022/04/17 07:14:15;;;;;;;9.32;5.78;;;8.30;99.90;;;;;;5094059;28;20059;-75
2022/04/17 07:16:47;;;;;;;11.68;6.10;;;8.30;99.90;;;;;;5096437;28;20036;-76
2022/04/17 07:19:14;;;;;;;8.95;6.28;;;8.50;99.90;;;;;;5095062;28;20048;-75
2022/04/17 07:21:40;;;;;;;7.68;5.82;;;8.60;99.90;;;;;;5095507;28;20544;-75
2022/04/17 07:24:06;;;;;;;8.07;5.63;;;8.70;99.90;;;;;;5094974;28;20043;-75
2022/04/17 07:26:31;;;;;;;10.63;6.35;;;8.80;99.90;;;;;;5078073;28;20101;-76
2022/04/17 07:28:57;;;;;;;7.90;5.53;;;8.90;99.90;;;;;;5110518;28;20036;-75
2022/04/17 07:31:23;;;;;;;9.50;6.15;;;9.00;99.90;;;;;;5096224;28;20048;-75
2022/04/17 07:33:49;;;;;;;9.27;6.18;;;9.10;99.90;;;;;;5094092;28;20123;-75
2022/04/17 07:36:14;;;;;;;9.15;6.00;;;9.20;99.90;;;;;;5096198;28;20102;-75
2022/04/17 07:38:40;;;;;;;9.98;6.07;;;9.30;99.90;;;;;;5094862;28;20456;-76
2022/04/17 07:41:06;;;;;;;9.23;6.13;;;9.30;99.90;;;;;;5095197;28;20170;-76
2022/04/17 07:43:32;;;;;;;8.50;5.80;;;9.50;99.90;;;;;;5094776;28;20046;-75
2022/04/17 07:45:58;;;;;;;8.80;5.97;;;9.50;99.90;;;;;;5095801;28;20540;-75
2022/04/17 07:48:24;;;;;;;8.88;5.88;;;9.60;99.90;;;;;;5095150;28;20044;-76
2022/04/17 07:50:52;;;;;;;10.80;6.35;;;9.70;99.90;;;;;;5094301;28;20101;-75
2022/04/17 07:53:18;;;;;;;8.25;5.72;;;9.80;99.90;;;;;;5095760;28;20052;-76
2022/04/17 07:55:44;;;;;;;8.63;6.07;;;9.90;99.90;;;;;;5093543;28;20067;-75
2022/04/17 07:58:22;;;;;;;9.43;6.00;;;9.90;99.90;;;;;;5095819;28;20036;-75
2022/04/17 08:00:57;;;;;;;10.45;6.10;;;10.00;99.90;;;;;;5094356;28;20048;-75
2022/04/17 08:03:34;;;;;;;8.43;6.00;;;10.10;99.90;;;;;;5093679;28;20036;-75
2022/04/17 08:06:01;;;;;;;8.98;6.10;;;10.20;99.90;;;;;;5094401;28;20445;-75
2022/04/17 08:08:28;;;;;;;10.55;5.78;;;10.30;99.90;;;;;;5095311;28;20150;-75
2022/04/17 08:10:54;;;;;;;7.63;5.60;;;10.30;99.90;;;;;;5094612;28;20052;-75
2022/04/17 08:13:19;;;;;;;9.02;6.15;;;10.40;99.90;;;;;;5094262;28;20039;-75
2022/04/17 08:15:45;;;;;;;8.00;5.40;;;10.40;99.90;;;;;;5093742;28;20051;-75
2022/04/17 08:18:11;;;;;;;8.93;5.93;;;10.60;99.90;;;;;;5093252;28;20101;-75
2022/04/17 08:20:37;;;;;;;9.48;6.00;;;10.60;99.90;;;;;;5095085;28;20051;-75
2022/04/17 08:23:04;;;;;;;10.98;6.53;;;10.70;99.90;;;;;;5092958;28;20456;-75
2022/04/17 08:25:29;;;;;;;9.15;6.22;;;10.80;99.90;;;;;;5093961;28;20462;-75
2022/04/17 08:27:56;;;;;;;10.05;6.15;;;10.80;99.90;;;;;;5093991;28;20127;-75
2022/04/17 08:30:27;;;;;;;8.00;5.43;;;10.90;99.90;;;;;;5094280;28;20524;-75
2022/04/17 08:32:53;;;;;;;9.32;6.18;;;11.00;99.90;;;;;;5094765;28;20507;-75
2022/04/17 08:35:20;;;;;;;9.23;5.40;;;11.10;99.90;;;;;;5093677;28;20100;-75
2022/04/17 08:37:46;;;;;;;9.60;5.68;;;11.20;99.90;;;;;;5094141;28;20119;-75
2022/04/17 08:40:13;;;;;;;11.57;4.85;;;11.30;99.90;;;;;;5092559;28;20056;-75
2022/04/17 08:42:39;;;;;;;9.73;5.90;;;11.40;99.90;;;;;;5094837;28;20162;-75
2022/04/17 08:45:09;;;;;;;12.05;6.65;;;11.50;99.50;;;;;;5094077;28;20051;-75
2022/04/17 08:47:37;;;;;;;7.32;5.10;;;11.60;99.90;;;;;;5094611;28;20100;-75
2022/04/17 08:50:09;;;;;;;7.82;5.25;;;11.70;99.80;;;;;;5076498;28;20064;-75
2022/04/17 08:52:35;;;;;;;9.25;5.18;;;11.80;98.50;;;;;;5092562;28;20048;-75
2022/04/17 08:55:02;;;;;;;8.20;5.15;;;11.90;98.20;;;;;;5093161;28;20047;-75
2022/04/17 08:57:28;;;;;;;8.43;5.72;;;12.00;97.90;;;;;;5093146;28;20105;-75
2022/04/17 08:59:54;;;;;;;8.18;5.00;;;12.00;97.20;;;;;;5092820;28;20101;-75
2022/04/17 09:02:20;;;;;;;12.50;5.50;;;12.00;96.90;;;;;;5093210;28;20048;-75
2022/04/17 09:04:46;;;;;;;7.72;5.03;;;12.10;97.10;;;;;;5093212;28;20058;-75
2022/04/17 09:07:13;;;;;;;8.77;5.00;;;12.20;97.50;;;;;;5093680;28;20044;-75
2022/04/17 09:09:53;;;;;;;11.45;5.97;;;12.20;97.70;;;;;;5092927;28;20399;-75
2022/04/17 09:12:24;;;;;;;8.25;5.07;;;12.30;97.10;;;;;;5093577;28;20048;-75
2022/04/17 09:14:50;;;;;;;9.50;5.30;;;12.50;96.90;;;;;;5094246;28;20040;-75
2022/04/17 09:17:17;;;;;;;7.55;5.30;;;12.50;96.50;;;;;;5094189;28;20044;-75
2022/04/17 09:19:43;;;;;;;7.28;4.78;;;12.60;96.60;;;;;;5092207;28;20044;-75
2022/04/17 09:22:09;;;;;;;10.27;5.15;;;12.60;95.80;;;;;;5092830;28;20040;-75
2022/04/17 09:24:36;;;;;;;7.82;4.72;;;12.70;95.10;;;;;;5109827;28;20122;-75
2022/04/17 09:27:04;;;;;;;7.88;5.38;;;12.70;94.80;;;;;;5093156;28;20086;-75
2022/04/17 09:29:38;;;;;;;7.88;5.70;;;12.80;94.90;;;;;;5092818;28;20044;-75
2022/04/17 09:32:13;;;;;;;7.30;4.55;;;12.80;94.50;;;;;;5094084;28;20040;-75
2022/04/17 09:34:47;;;;;;;7.38;5.05;;;12.90;93.40;;;;;;5091754;28;20056;-75
2022/04/17 09:37:17;;;;;;;7.25;5.38;;;13.00;92.10;;;;;;5092635;28;20052;-75
2022/04/17 09:39:44;;;;;;;10.23;5.32;;;13.10;93.00;;;;;;5092775;28;20058;-75
2022/04/17 09:42:10;;;;;;;7.53;4.85;;;13.20;92.90;;;;;;5092857;28;20463;-76
2022/04/17 09:45:03;;;;;;;6.95;5.05;;;13.30;93.20;;;;;;5092409;28;20036;-75
2022/04/17 09:47:29;;;;;;;7.10;5.00;;;13.40;92.50;;;;;;5092642;28;20086;-75
2022/04/17 09:50:08;;;;;;;10.05;5.25;;;13.50;92.30;;;;;;5092535;28;20454;-76
2022/04/17 09:52:40;;;;;;;12.48;4.93;;;13.60;92.10;;;;;;5092205;28;20483;-75
2022/04/17 09:55:06;;;;;;;8.52;5.03;;;13.70;92.40;;;;;;5092970;28;20044;-75
2022/04/17 09:57:33;;;;;;;5.45;4.50;;;13.80;91.70;;;;;;5093728;28;20131;-75
2022/04/17 10:00:10;;;;;;;6.22;4.53;;;14.00;91.20;;;;;;5092403;28;20055;-75
2022/04/17 10:02:38;;;;;;;31.70;5.40;;;14.20;90.00;;;;;;5092808;28;20048;-75
2022/04/17 10:05:06;;;;;;;6.00;4.25;;;14.30;89.60;;;;;;5092660;28;20118;-75
2022/04/17 10:07:32;;;;;;;9.43;4.43;;;14.40;88.30;;;;;;5093476;28;20051;-75
2022/04/17 10:09:57;;;;;;;6.13;4.35;;;14.60;87.20;;;;;;5091518;28;20387;-75
2022/04/17 10:12:25;;;;;;;6.25;4.82;;;14.70;85.30;;;;;;5092400;28;20048;-75
2022/04/17 10:14:52;;;;;;;5.38;3.92;;;14.90;84.30;;;;;;5092336;28;20048;-75
2022/04/17 10:17:22;;;;;;;5.63;4.00;;;15.10;82.80;;;;;;5091413;28;20402;-75
2022/04/17 10:19:50;;;;;;;4.85;3.85;;;15.20;80.20;;;;;;5093577;28;20436;-75
2022/04/17 10:22:18;;;;;;;9.45;3.80;;;15.30;79.40;;;;;;5093310;28;20083;-75
2022/04/17 10:24:51;;;;;;;6.55;4.25;;;15.50;77.90;;;;;;5092480;28;20593;-75
2022/04/17 10:27:35;;;;;;;8.07;4.63;;;15.60;77.20;;;;;;5092443;28;20379;-75
2022/04/17 10:30:07;;;;;;;5.63;3.83;;;15.70;73.60;;;;;;5092570;28;20050;-75
2022/04/17 10:32:32;;;;;;;4.53;3.35;;;15.70;75.30;;;;;;5093450;28;20040;-75
2022/04/17 10:35:13;;;;;;;4.63;3.53;;;15.90;74.10;;;;;;5092022;28;20521;-75
2022/04/17 10:37:48;;;;;;;5.10;3.22;;;16.10;72.50;;;;;;5091453;28;20050;-75
2022/04/17 10:40:14;;;;;;;8.98;3.55;;;16.20;69.80;;;;;;5091983;28;20040;-76
2022/04/17 10:42:57;;;;;;;4.72;2.80;;;16.40;71.70;;;;;;5092129;28;20125;-75
2022/04/17 10:45:23;;;;;;;7.35;3.38;;;16.60;66.10;;;;;;5092241;28;20106;-75
2022/04/17 10:48:10;;;;;;;3.92;2.97;;;16.70;66.90;;;;;;5093227;28;20399;-75
2022/04/17 10:50:48;;;;;;;6.18;3.17;;;16.80;64.60;;;;;;5092849;28;20487;-76
2022/04/17 10:53:25;;;;;;;8.75;3.33;;;16.90;66.00;;;;;;5093070;28;20055;-75
2022/04/17 10:56:14;;;;;;;4.63;3.00;;;17.00;63.60;;;;;;5091816;28;20403;-75
2022/04/17 10:58:57;;;;;;;4.97;3.08;;;17.00;60.50;;;;;;5091209;28;20117;-75
2022/04/17 11:01:41;;;;;;;5.80;3.40;;;17.10;62.30;;;;;;5092244;28;20080;-75
2022/04/17 11:04:26;;;;;;;4.72;3.40;;;17.20;63.10;;;;;;5093113;28;20132;-75
2022/04/17 11:06:53;;;;;;;4.03;3.22;;;17.30;59.40;;;;;;5094872;28;20048;-75
2022/04/17 11:09:22;;;;;;;4.40;3.13;;;17.30;62.00;;;;;;5096663;28;20048;-75
2022/04/17 11:11:48;;;;;;;4.55;3.63;;;17.30;62.50;;;;;;5095954;28;20036;-75
2022/04/17 11:14:19;;;;;;;5.05;3.50;;;17.40;62.50;;;;;;5095036;28;20083;-75
2022/04/17 11:16:56;;;;;;;5.78;3.50;;;17.50;63.00;;;;;;5095077;28;20534;-75
2022/04/17 11:19:25;;;;;;;4.40;3.60;;;17.60;61.00;;;;;;5095738;28;20047;-75
2022/04/17 11:21:53;;;;;;;6.68;3.30;;;17.60;60.30;;;;;;5096501;28;20040;-75
2022/04/17 11:24:20;;;;;;;4.45;3.60;;;17.40;59.10;;;;;;5096372;28;20040;-75
2022/04/17 11:27:05;;;;;;;5.88;3.80;;;17.40;59.10;;;;;;5095615;28;20040;-75
2022/04/17 11:29:48;;;;;;;;;;;17.50;59.20;;;;;;5078565;28;20052;-75
2022/04/17 11:32:16;;;;;;;5.07;3.83;;;17.50;59.40;;;;;;5111979;28;19927;-75
2022/04/17 11:34:52;;;;;;;5.38;3.47;;;17.50;61.00;;;;;;5093791;28;20048;-75
2022/04/17 11:37:28;;;;;;;5.55;3.70;;;17.60;58.90;;;;;;5094794;28;20040;-75
2022/04/17 11:40:00;;;;;;;4.93;3.42;;;17.80;58.60;;;;;;5094861;28;20048;-75
2022/04/17 11:42:29;;;;;;;5.38;3.67;;;17.80;56.80;;;;;;5095067;28;20430;-75
2022/04/17 11:45:00;;;;;;;7.50;4.22;;;17.80;58.50;;;;;;5096024;28;20051;-75
2022/04/17 11:47:26;;;;;;;4.05;3.38;;;17.80;55.70;;;;;;5095264;28;20084;-75
2022/04/17 11:49:52;;;;;;;5.22;3.22;;;17.90;56.10;;;;;;5111250;28;20095;-76
2022/04/17 11:52:19;;;;;;;4.60;2.85;;;17.80;55.40;;;;;;5077963;28;20048;-75
2022/04/17 11:54:46;;;;;;;4.20;3.35;;;17.90;56.10;;;;;;5093712;28;20483;-75
2022/04/17 11:57:13;;;;;;;4.13;2.97;;;17.90;55.90;;;;;;5095859;28;20403;-75
2022/04/17 11:59:45;;;;;;;4.57;2.97;;;18.00;55.10;;;;;;5095761;28;20044;-75
2022/04/17 12:02:16;;;;;;;8.05;3.88;;;18.10;55.60;;;;;;5094857;28;20048;-75
2022/04/17 12:04:46;;;;;;;6.25;3.17;;;18.20;55.60;;;;;;5094359;28;20052;-75
2022/04/17 12:07:13;;;;;;;8.20;3.30;;;18.30;55.30;;;;;;5111520;28;20052;-75
2022/04/17 12:09:40;;;;;;;5.40;3.30;;;18.40;54.20;;;;;;5110715;28;20097;-75
2022/04/17 12:12:14;;;;;;;6.00;3.35;;;18.50;54.40;;;;;;5095346;28;20123;-74
2022/04/17 12:14:41;;;;;;;4.73;3.40;;;18.60;53.20;;;;;;5093806;28;20507;-74
2022/04/17 12:17:07;;;;;;;6.55;3.53;;;18.60;53.00;;;;;;5093240;28;20040;-75
2022/04/17 12:19:33;;;;;;;5.47;3.55;;;18.60;53.10;;;;;;5077149;28;20059;-74
2022/04/17 12:21:59;;;;;;;5.95;3.65;;;18.60;52.30;;;;;;5095369;28;20134;-75
2022/04/17 12:24:27;;;;;;;6.00;3.88;;;18.70;52.30;;;;;;5092974;28;20400;-74
2022/04/17 12:26:54;;;;;;;5.88;2.97;;;18.70;52.70;;;;;;5093750;28;20075;-75
2022/04/17 12:29:20;;;;;;;7.68;3.20;;;18.70;52.70;;;;;;5110252;28;20044;-74
2022/04/17 12:31:46;;;;;;;8.60;3.30;;;18.70;53.80;;;;;;5093998;28;20052;-75
2022/04/17 12:34:19;;;;;;;6.57;2.80;;;18.80;52.60;;;;;;5094043;28;20387;-75
2022/04/17 12:36:48;;;;;;;4.68;2.40;;;18.90;50.50;;;;;;5093134;28;20056;-75
2022/04/17 12:39:15;;;;;;;3.65;2.55;;;18.90;50.10;;;;;;5093733;28;20040;-74
2022/04/17 12:41:46;;;;;;;4.75;3.20;;;18.90;50.00;;;;;;5110789;28;20047;-75
2022/04/17 12:44:12;;;;;;;3.80;2.92;;;19.00;50.60;;;;;;5092790;28;20075;-75
2022/04/17 12:46:42;;;;;;;4.57;2.70;;;19.10;49.70;;;;;;5093491;28;20518;-75
2022/04/17 12:49:17;;;;;;;7.07;3.00;;;19.20;50.00;;;;;;5110805;28;20048;-75
2022/04/17 12:52:01;;;;;;;3.10;2.50;;;19.10;49.60;;;;;;5092759;28;20055;-75
2022/04/17 12:54:37;;;;;;;5.43;2.50;;;19.00;48.90;;;;;;5093244;28;20101;-75
2022/04/17 12:57:12;;;;;;;4.53;2.88;;;19.00;49.20;;;;;;5093464;28;20113;-75
2022/04/17 12:59:45;;;;;;;7.07;2.78;;;19.00;48.40;;;;;;5093844;28;20101;-75
2022/04/17 13:02:17;;;;;;;3.45;2.83;;;19.10;48.90;;;;;;5094415;28;20063;-75
2022/04/17 13:04:47;;;;;;;3.67;2.90;;;19.10;48.60;;;;;;5109693;28;20388;-75
2022/04/17 13:07:16;;;;;;;4.38;3.00;;;19.10;50.10;;;;;;5093007;28;20055;-75
2022/04/17 13:09:52;;;;;;;4.07;2.70;;;19.10;50.40;;;;;;5094490;28;20116;-75